createdAt,value
2018-01-10T00:01:13.519Z,97768.14
2018-01-10T00:03:41.047Z,97767.33
2018-01-10T00:06:08.581Z,97764.08
2018-01-10T00:08:36.161Z,97758.09
2018-01-10T00:11:03.743Z,97758.95
2018-01-10T00:13:31.306Z,97756.52
2018-01-10T00:15:58.832Z,97760.14
2018-01-10T00:18:26.366Z,97759.39
2018-01-10T00:20:53.927Z,97759.31
2018-01-10T00:23:21.478Z,97758.86
2018-01-10T00:25:49.087Z,97759.53
2018-01-10T00:28:16.621Z,97755.91
2018-01-10T00:30:44.143Z,97755.37
2018-01-10T00:33:11.712Z,97761.14
2018-01-10T00:35:39.253Z,97750.23
2018-01-10T00:38:06.772Z,97769.33
2018-01-10T00:40:34.377Z,97759.19
2018-01-10T00:43:01.902Z,97766.36
2018-01-10T00:45:29.428Z,97774.91
2018-01-10T00:47:56.964Z,97760.16
2018-01-10T00:50:24.564Z,97771.77
2018-01-10T00:52:52.193Z,97767.48
2018-01-10T00:55:19.722Z,97764.96
2018-01-10T00:57:47.238Z,97767.11
2018-01-10T01:00:14.787Z,97754.67
2018-01-10T01:02:42.321Z,97755.27
2018-01-10T01:05:09.852Z,97755.12
2018-01-10T01:07:37.406Z,97756.12
2018-01-10T01:10:04.958Z,97749.56
2018-01-10T01:12:32.489Z,97756.64
2018-01-10T01:15:00.060Z,97751.91
2018-01-10T01:17:27.608Z,97748.64
2018-01-10T01:19:55.189Z,97750.70
2018-01-10T01:22:22.718Z,97749.74
2018-01-10T01:24:51.098Z,97760.39
2018-01-10T01:27:18.618Z,97766.98
2018-01-10T01:29:46.192Z,97766.58
2018-01-10T01:32:13.808Z,97766.91
2018-01-10T01:34:41.373Z,97761.55
2018-01-10T01:37:08.914Z,97765.69
2018-01-10T01:39:36.472Z,97764.70
2018-01-10T01:42:04.097Z,97765.16
2018-01-10T01:44:31.656Z,97760.02
2018-01-10T01:46:59.208Z,97761.89
2018-01-10T01:49:26.738Z,97764.29
2018-01-10T01:51:54.296Z,97758.40
2018-01-10T01:54:22.164Z,97753.20
2018-01-10T01:56:49.689Z,97757.03
2018-01-10T01:59:17.227Z,97752.34
2018-01-10T02:01:44.764Z,97749.34
2018-01-10T02:04:12.284Z,97754.48
2018-01-10T02:06:39.812Z,97755.75
2018-01-10T02:09:07.352Z,97754.89
2018-01-10T02:11:34.897Z,97744.70
2018-01-10T02:14:02.492Z,97743.30
2018-01-10T02:16:30.031Z,97749.23
2018-01-10T02:18:57.559Z,97741.52
2018-01-10T02:21:25.094Z,97732.39
2018-01-10T02:23:52.658Z,97728.22
2018-01-10T02:26:20.318Z,97733.30
2018-01-10T02:28:47.887Z,97736.88
2018-01-10T02:31:15.427Z,97735.61
2018-01-10T02:33:42.964Z,97738.78
2018-01-10T02:36:10.536Z,97742.97
2018-01-10T02:38:38.094Z,97739.05
2018-01-10T02:41:05.777Z,97743.59
2018-01-10T02:43:33.303Z,97741.70
2018-01-10T02:46:00.863Z,97744.93
2018-01-10T02:48:28.389Z,97752.59
2018-01-10T02:50:55.915Z,97744.19
2018-01-10T02:53:23.508Z,97744.05
2018-01-10T02:55:51.134Z,97744.74
2018-01-10T02:58:18.696Z,97742.30
2018-01-10T03:00:46.238Z,97745.87
2018-01-10T03:03:27.245Z,97744.39
2018-01-10T03:05:54.794Z,97751.27
2018-01-10T03:08:22.324Z,97742.72
2018-01-10T03:10:49.857Z,97748.90
2018-01-10T03:13:17.392Z,97744.05
2018-01-10T03:15:44.922Z,97751.83
2018-01-10T03:18:12.493Z,97758.31
2018-01-10T03:20:39.992Z,97757.34
2018-01-10T03:23:07.562Z,97753.50
2018-01-10T03:25:35.153Z,97763.32
2018-01-10T03:28:02.683Z,97750.95
2018-01-10T03:30:30.211Z,97763.37
2018-01-10T03:32:57.833Z,97765.48
2018-01-10T03:35:25.352Z,97773.39
2018-01-10T03:37:52.877Z,97780.26
2018-01-10T03:40:20.403Z,97773.50
2018-01-10T03:42:47.950Z,97770.42
2018-01-10T03:45:15.502Z,97768.63
2018-01-10T03:47:43.069Z,97767.27
2018-01-10T03:50:10.609Z,97766.80
2018-01-10T03:52:38.154Z,97763.27
2018-01-10T03:55:05.710Z,97767.98
2018-01-10T03:57:33.248Z,97761.13
2018-01-10T04:00:00.787Z,97762.76
2018-01-10T04:02:28.409Z,97766.30
2018-01-10T04:04:56.103Z,97763.48
2018-01-10T04:07:23.657Z,97760.66
2018-01-10T04:09:51.328Z,97761.24
2018-01-10T04:12:18.847Z,97763.73
2018-01-10T04:14:46.449Z,97759.73
2018-01-10T04:17:13.984Z,97754.89
2018-01-10T04:19:41.514Z,97757.75
2018-01-10T04:22:09.050Z,97754.64
2018-01-10T04:24:36.579Z,97751.63
2018-01-10T04:27:04.138Z,97751.72
2018-01-10T04:29:31.673Z,97749.38
2018-01-10T04:31:59.250Z,97749.06
2018-01-10T04:34:26.915Z,97750.70
2018-01-10T04:36:54.447Z,97753.50
2018-01-10T04:39:21.975Z,97752.13
2018-01-10T04:41:49.558Z,97749.98
2018-01-10T04:44:17.107Z,97754.39
2018-01-10T04:46:44.807Z,97756.73
2018-01-10T04:49:12.328Z,97759.44
2018-01-10T04:51:39.868Z,97762.41
2018-01-10T04:54:07.442Z,97760.70
2018-01-10T04:56:34.987Z,97763.93
2018-01-10T04:59:02.494Z,97757.39
2018-01-10T05:01:30.024Z,97766.13
2018-01-10T05:03:57.628Z,97759.33
2018-01-10T05:06:25.161Z,97756.22
2018-01-10T05:08:52.692Z,97751.75
2018-01-10T05:11:20.217Z,97756.87
2018-01-10T05:13:47.759Z,97746.52
2018-01-10T05:16:15.289Z,97750.72
2018-01-10T05:18:42.860Z,97752.92
2018-01-10T05:21:10.375Z,97757.91
2018-01-10T05:23:37.927Z,97758.27
2018-01-10T05:26:05.480Z,97769.92
2018-01-10T05:28:33.078Z,97768.23
2018-01-10T05:31:00.630Z,97771.86
2018-01-10T05:33:28.197Z,97777.13
2018-01-10T05:35:55.749Z,97771.38
2018-01-10T05:38:23.284Z,97773.43
2018-01-10T05:40:50.878Z,97775.98
2018-01-10T05:43:18.392Z,97777.02
2018-01-10T05:45:45.932Z,97781.90
2018-01-10T05:48:13.448Z,97777.36
2018-01-10T05:50:41.288Z,97775.59
2018-01-10T05:53:08.889Z,97780.48
2018-01-10T05:55:36.413Z,97779.92
2018-01-10T05:58:03.943Z,97782.47
2018-01-10T06:00:31.469Z,97778.34
2018-01-10T06:02:59.012Z,97773.00
2018-01-10T06:05:26.531Z,97775.22
2018-01-10T06:07:54.107Z,97780.67
2018-01-10T06:10:21.663Z,97781.13
2018-01-10T06:12:49.183Z,97775.23
2018-01-10T06:15:16.735Z,97784.95
2018-01-10T06:17:44.267Z,97783.27
2018-01-10T06:20:11.798Z,97776.10
2018-01-10T06:22:39.366Z,97782.04
2018-01-10T06:25:06.910Z,97786.49
2018-01-10T06:27:34.444Z,97781.88
2018-01-10T06:30:01.990Z,97781.32
2018-01-10T06:32:29.563Z,97771.14
2018-01-10T06:34:57.104Z,97774.72
2018-01-10T06:37:24.670Z,97772.17
2018-01-10T06:39:53.164Z,97777.23
2018-01-10T06:42:20.709Z,97775.96
2018-01-10T06:44:48.282Z,97774.25
2018-01-10T06:47:15.847Z,97780.50
2018-01-10T06:49:43.440Z,97775.48
2018-01-10T06:52:10.993Z,97777.74
2018-01-10T06:54:38.518Z,97777.06
2018-01-10T06:57:06.045Z,97774.20
2018-01-10T06:59:33.574Z,97773.86
2018-01-10T07:02:01.124Z,97770.08
2018-01-10T07:04:28.660Z,97772.83
2018-01-10T07:06:56.184Z,97776.25
2018-01-10T07:09:23.705Z,97770.57
2018-01-10T07:11:51.233Z,97770.46
2018-01-10T07:14:18.754Z,97776.55
2018-01-10T07:16:46.280Z,97773.11
2018-01-10T07:19:13.833Z,97773.48
2018-01-10T07:21:41.569Z,97770.06
2018-01-10T07:24:09.089Z,97768.01
2018-01-10T07:26:36.652Z,97769.05
2018-01-10T07:29:04.247Z,97768.69
2018-01-10T07:31:31.778Z,97772.83
2018-01-10T07:33:59.307Z,97765.84
2018-01-10T07:36:26.837Z,97767.58
2018-01-10T07:38:54.357Z,97769.06
2018-01-10T07:41:21.872Z,97764.98
2018-01-10T07:43:49.384Z,97763.23
2018-01-10T07:46:16.897Z,97772.98
2018-01-10T07:48:44.808Z,97770.11
2018-01-10T07:51:12.413Z,97775.85
2018-01-10T07:53:39.928Z,97762.19
2018-01-10T07:56:07.492Z,97762.08
2018-01-10T07:58:35.050Z,97762.34
2018-01-10T08:01:02.603Z,97764.93
2018-01-10T08:03:30.149Z,97766.28
2018-01-10T08:05:57.696Z,97763.02
2018-01-10T08:08:25.222Z,97758.39
2018-01-10T08:10:52.823Z,97759.03
2018-01-10T08:13:20.457Z,97759.23
2018-01-10T08:15:48.018Z,97764.67
2018-01-10T08:18:15.539Z,97759.85
2018-01-10T08:20:43.144Z,97758.56
2018-01-10T08:23:10.669Z,97757.27
2018-01-10T08:25:38.409Z,97758.73
2018-01-10T08:28:05.928Z,97757.88
2018-01-10T08:30:33.477Z,97762.41
2018-01-10T08:33:01.010Z,97768.67
2018-01-10T08:35:28.551Z,97756.41
2018-01-10T08:37:56.123Z,97762.24
2018-01-10T08:40:23.643Z,97760.51
2018-01-10T08:42:51.421Z,97763.72
2018-01-10T08:45:18.933Z,97761.88
2018-01-10T08:47:46.465Z,97764.85
2018-01-10T08:50:14.003Z,97761.67
2018-01-10T08:52:41.510Z,97759.83
2018-01-10T08:55:09.039Z,97764.11
2018-01-10T08:57:36.585Z,97753.52
2018-01-10T09:00:04.110Z,97760.98
2018-01-10T09:02:31.628Z,97762.49
2018-01-10T09:04:59.140Z,97761.88
2018-01-10T09:07:26.673Z,97753.95
2018-01-10T09:09:54.194Z,97753.95
2018-01-10T09:12:22.235Z,97742.58
2018-01-10T09:14:49.807Z,97748.38
2018-01-10T09:17:17.345Z,97745.47
2018-01-10T09:19:44.855Z,97745.05
2018-01-10T09:22:12.376Z,97743.45
2018-01-10T09:24:39.887Z,97742.16
2018-01-10T09:27:07.418Z,97736.42
2018-01-10T09:29:34.939Z,97738.41
2018-01-10T09:32:02.451Z,97736.80
2018-01-10T09:34:30.028Z,97736.94
2018-01-10T09:36:57.605Z,97737.45
2018-01-10T09:39:25.191Z,97745.45
2018-01-10T09:41:52.918Z,97731.81
2018-01-10T09:44:20.441Z,97742.56
2018-01-10T09:46:48.078Z,97732.06
2018-01-10T09:49:15.611Z,97735.31
2018-01-10T09:51:43.148Z,97724.73
2018-01-10T09:54:10.698Z,97724.47
2018-01-10T09:56:38.238Z,97727.27
2018-01-10T09:59:05.751Z,97722.10
2018-01-10T10:01:33.299Z,97714.12
2018-01-10T10:04:00.810Z,97725.73
2018-01-10T10:06:28.363Z,97718.38
2018-01-10T10:08:55.906Z,97715.82
2018-01-10T10:11:23.428Z,97715.77
2018-01-10T10:13:50.960Z,97703.50
2018-01-10T10:16:18.508Z,97706.33
2018-01-10T10:18:46.049Z,97703.21
2018-01-10T10:21:13.570Z,97699.55
2018-01-10T10:23:41.264Z,97700.72
2018-01-10T10:26:08.822Z,97697.45
2018-01-10T10:28:36.360Z,97693.29
2018-01-10T10:31:03.944Z,97691.58
2018-01-10T10:33:31.525Z,97694.11
2018-01-10T10:35:59.040Z,97692.77
2018-01-10T10:38:26.565Z,97688.31
2018-01-10T10:40:54.083Z,97682.10
2018-01-10T10:43:21.603Z,97689.81
2018-01-10T10:45:49.138Z,97682.30
2018-01-10T10:48:16.640Z,97680.29
2018-01-10T10:50:44.242Z,97677.13
2018-01-10T10:53:11.768Z,97673.77
2018-01-10T10:55:39.298Z,97669.70
2018-01-10T10:58:06.816Z,97672.98
2018-01-10T11:00:34.354Z,97667.78
2018-01-10T11:03:01.910Z,97665.16
2018-01-10T11:05:29.570Z,97660.37
2018-01-10T11:07:57.101Z,97652.81
2018-01-10T11:10:24.624Z,97652.52
2018-01-10T11:12:52.140Z,97647.92
2018-01-10T11:15:19.725Z,97644.39
2018-01-10T11:17:47.299Z,97631.56
2018-01-10T11:20:14.818Z,97629.68
2018-01-10T11:22:42.370Z,97616.39
2018-01-10T11:25:09.920Z,97618.16
2018-01-10T11:27:37.441Z,97616.88
2018-01-10T11:30:04.970Z,97617.22
2018-01-10T11:32:32.493Z,97615.00
2018-01-10T11:35:00.028Z,97603.30
2018-01-10T11:37:27.554Z,97594.16
2018-01-10T11:39:55.060Z,97600.97
2018-01-10T11:42:22.574Z,97594.77
2018-01-10T11:44:50.096Z,97594.71
2018-01-10T11:47:18.896Z,97586.79
2018-01-10T11:49:46.398Z,97585.11
2018-01-10T11:52:13.929Z,97580.47
2018-01-10T11:54:41.445Z,97584.41
2018-01-10T11:57:09.014Z,97573.22
2018-01-10T11:59:36.534Z,97566.77
2018-01-10T12:02:04.064Z,97570.69
2018-01-10T12:04:31.605Z,97566.06
2018-01-10T12:06:59.135Z,97565.48
2018-01-10T12:09:26.664Z,97557.38
2018-01-10T12:11:54.218Z,97551.40
2018-01-10T12:14:21.769Z,97546.98
2018-01-10T12:16:49.309Z,97551.70
2018-01-10T12:19:16.859Z,97539.91
2018-01-10T12:21:44.421Z,97546.48
2018-01-10T12:24:11.968Z,97542.33
2018-01-10T12:26:39.498Z,97534.66
2018-01-10T12:29:07.040Z,97529.98
2018-01-10T12:31:34.571Z,97525.47
2018-01-10T12:34:02.215Z,97520.17
2018-01-10T12:36:29.755Z,97517.74
2018-01-10T12:38:57.304Z,97514.65
2018-01-10T12:41:24.878Z,97512.12
2018-01-10T12:43:52.424Z,97513.20
2018-01-10T12:46:19.989Z,97502.84
2018-01-10T12:48:47.538Z,97499.97
2018-01-10T12:51:15.060Z,97492.45
2018-01-10T12:53:42.602Z,97496.19
2018-01-10T12:56:10.122Z,97493.91
2018-01-10T12:58:37.805Z,97492.58
2018-01-10T13:01:05.332Z,97493.05
2018-01-10T13:03:32.900Z,97489.93
2018-01-10T13:06:00.414Z,97490.05
2018-01-10T13:08:27.948Z,97485.45
2018-01-10T13:10:55.525Z,97489.76
2018-01-10T13:13:23.049Z,97489.05
2018-01-10T13:15:50.576Z,97488.79
2018-01-10T13:18:18.154Z,97490.85
2018-01-10T13:20:45.743Z,97493.02
2018-01-10T13:23:13.285Z,97491.42
2018-01-10T13:25:40.823Z,97492.98
2018-01-10T13:28:08.383Z,97486.45
2018-01-10T13:30:35.941Z,97494.36
2018-01-10T13:33:03.491Z,97485.43
2018-01-10T13:35:31.540Z,97489.55
2018-01-10T13:37:59.099Z,97496.19
2018-01-10T13:40:26.620Z,97493.30
2018-01-10T13:42:54.154Z,97487.47
2018-01-10T13:45:21.686Z,97485.33
2018-01-10T13:47:49.246Z,97485.80
2018-01-10T13:50:16.875Z,97487.67
2018-01-10T13:52:44.419Z,97493.78
2018-01-10T13:55:11.935Z,97490.81
2018-01-10T13:57:39.480Z,97482.78
2018-01-10T14:00:07.100Z,97487.06
2018-01-10T14:02:34.656Z,97485.34
2018-01-10T14:05:02.171Z,97480.19
2018-01-10T14:07:29.703Z,97481.94
2018-01-10T14:09:57.269Z,97481.73
2018-01-10T14:12:24.794Z,97489.68
2018-01-10T14:14:52.331Z,97494.36
2018-01-10T14:17:19.855Z,97488.11
2018-01-10T14:19:47.377Z,97495.97
2018-01-10T14:22:14.926Z,97507.15
2018-01-10T14:24:42.456Z,97499.97
2018-01-10T14:27:09.999Z,97509.70
2018-01-10T14:29:37.530Z,97503.41
2018-01-10T14:32:05.084Z,97508.90
2018-01-10T14:34:32.666Z,97511.51
2018-01-10T14:37:00.217Z,97510.31
2018-01-10T14:39:27.766Z,97509.95
2018-01-10T14:41:55.335Z,97511.55
2018-01-10T14:44:22.849Z,97510.77
2018-01-10T14:46:50.361Z,97510.39
2018-01-10T14:49:17.900Z,97519.75
2018-01-10T14:51:45.417Z,97516.59
2018-01-10T14:54:12.981Z,97523.28
2018-01-10T14:56:40.579Z,97514.67
2018-01-10T14:59:08.099Z,97518.64
2018-01-10T15:01:35.771Z,97517.44
2018-01-10T15:04:03.296Z,97514.34
2018-01-10T15:06:30.875Z,97514.14
2018-01-10T15:08:58.459Z,97519.19
2018-01-10T15:11:25.994Z,97514.34
2018-01-10T15:13:53.525Z,97516.91
2018-01-10T15:16:21.060Z,97517.67
2018-01-10T15:18:48.565Z,97523.97
2018-01-10T15:21:16.091Z,97520.30
2018-01-10T15:23:43.623Z,97525.83
2018-01-10T15:26:11.166Z,97529.48
2018-01-10T15:28:38.710Z,97529.17
2018-01-10T15:31:06.224Z,97531.81
2018-01-10T15:33:33.737Z,97533.36
2018-01-10T15:36:01.269Z,97536.09
2018-01-10T15:38:28.844Z,97532.41
2018-01-10T15:40:56.364Z,97540.72
2018-01-10T15:43:23.917Z,97540.75
2018-01-10T15:45:51.480Z,97535.55
2018-01-10T15:48:19.099Z,97544.60
2018-01-10T15:50:46.638Z,97541.64
2018-01-10T15:53:14.189Z,97542.62
2018-01-10T15:55:41.821Z,97543.28
2018-01-10T15:58:09.355Z,97545.95
2018-01-10T16:00:36.885Z,97540.80
2018-01-10T16:03:04.436Z,97549.28
2018-01-10T16:05:31.949Z,97548.34
2018-01-10T16:07:59.465Z,97551.59
2018-01-10T16:10:27.127Z,97548.09
2018-01-10T16:12:54.656Z,97558.30
2018-01-10T16:15:22.191Z,97543.90
2018-01-10T16:17:49.697Z,97545.45
2018-01-10T16:20:17.267Z,97547.44
2018-01-10T16:22:44.820Z,97548.14
2018-01-10T16:25:12.380Z,97545.73
2018-01-10T16:27:39.924Z,97543.81
2018-01-10T16:30:07.447Z,97551.38
2018-01-10T16:32:34.991Z,97553.77
2018-01-10T16:35:02.717Z,97550.78
2018-01-10T16:37:30.260Z,97554.53
2018-01-10T16:39:57.801Z,97552.83
2018-01-10T16:42:25.314Z,97557.16
2018-01-10T16:44:52.862Z,97554.02
2018-01-10T16:47:20.386Z,97553.03
2018-01-10T16:49:47.937Z,97561.06
2018-01-10T16:52:15.613Z,97563.38
2018-01-10T16:54:43.145Z,97562.41
2018-01-10T16:57:10.728Z,97561.72
2018-01-10T16:59:38.274Z,97555.02
2018-01-10T17:02:05.832Z,97561.83
2018-01-10T17:04:33.388Z,97563.29
2018-01-10T17:07:00.924Z,97565.97
2018-01-10T17:09:28.447Z,97569.87
2018-01-10T17:11:56.044Z,97568.28
2018-01-10T17:14:23.584Z,97576.55
2018-01-10T17:16:51.116Z,97579.89
2018-01-10T17:19:18.691Z,97577.62
2018-01-10T17:21:46.219Z,97583.48
2018-01-10T17:24:13.790Z,97584.58
2018-01-10T17:26:41.319Z,97596.23
2018-01-10T17:29:08.925Z,97588.24
2018-01-10T17:31:36.480Z,97590.23
2018-01-10T17:34:04.011Z,97592.13
2018-01-10T17:36:31.531Z,97593.20
2018-01-10T17:38:59.069Z,97586.91
2018-01-10T17:41:26.646Z,97597.08
2018-01-10T17:43:54.177Z,97592.66
2018-01-10T17:46:21.699Z,97591.61
2018-01-10T17:48:49.345Z,97596.55
2018-01-10T17:51:16.881Z,97606.08
2018-01-10T17:53:44.394Z,97606.20
2018-01-10T17:56:11.920Z,97607.38
2018-01-10T17:58:39.460Z,97614.61
2018-01-10T18:01:07.040Z,97610.59
2018-01-10T18:03:34.644Z,97609.94
2018-01-10T18:06:02.172Z,97609.53
2018-01-10T18:08:29.696Z,97616.75
2018-01-10T18:10:57.240Z,97616.31
2018-01-10T18:13:24.776Z,97621.67
2018-01-10T18:15:52.331Z,97625.16
2018-01-10T18:18:19.902Z,97622.52
2018-01-10T18:20:47.576Z,97626.49
2018-01-10T18:23:15.104Z,97623.16
2018-01-10T18:25:42.786Z,97620.77
2018-01-10T18:28:10.301Z,97629.17
2018-01-10T18:30:37.831Z,97619.95
2018-01-10T18:33:05.401Z,97624.66
2018-01-10T18:35:32.933Z,97624.53
2018-01-10T18:38:00.502Z,97623.72
2018-01-10T18:40:28.311Z,97624.41
2018-01-10T18:42:55.884Z,97622.66
2018-01-10T18:45:23.577Z,97621.45
2018-01-10T18:47:51.221Z,97617.97
2018-01-10T18:50:18.775Z,97621.83
2018-01-10T18:52:46.375Z,97617.94
2018-01-10T18:55:13.916Z,97613.11
2018-01-10T18:57:41.506Z,97605.77
2018-01-10T19:00:09.052Z,97601.75
2018-01-10T19:02:36.567Z,97601.06
2018-01-10T19:05:04.112Z,97600.41
2018-01-10T19:07:31.706Z,97602.69
2018-01-10T19:09:59.281Z,97599.23
2018-01-10T19:12:26.819Z,97602.19
2018-01-10T19:14:54.386Z,97604.05
2018-01-10T19:17:21.938Z,97605.83
2018-01-10T19:19:49.502Z,97603.94
2018-01-10T19:22:17.059Z,97601.02
2018-01-10T19:24:44.727Z,97593.52
2018-01-10T19:27:12.276Z,97596.34
2018-01-10T19:29:39.944Z,97590.58
2018-01-10T19:32:07.611Z,97593.77
2018-01-10T19:34:35.172Z,97595.79
2018-01-10T19:37:02.709Z,97592.45
2018-01-10T19:39:30.274Z,97591.91
2018-01-10T19:41:57.828Z,97596.59
2018-01-10T19:44:25.360Z,97593.66
2018-01-10T19:46:52.927Z,97594.45
2018-01-10T19:49:20.501Z,97593.25
2018-01-10T19:51:48.076Z,97602.42
2018-01-10T19:54:15.669Z,97598.55
2018-01-10T19:56:43.212Z,97599.40
2018-01-10T19:59:10.740Z,97599.78
2018-01-10T20:01:38.277Z,97604.88
2018-01-10T20:04:05.849Z,97598.86
2018-01-10T20:06:33.415Z,97606.59
2018-01-10T20:09:00.971Z,97606.06
2018-01-10T20:11:28.522Z,97600.98
2018-01-10T20:13:56.083Z,97602.86
2018-01-10T20:16:23.645Z,97602.59
2018-01-10T20:18:51.183Z,97603.11
2018-01-10T20:21:18.745Z,97611.94
2018-01-10T20:23:46.286Z,97617.54
2018-01-10T20:26:13.862Z,97606.07
2018-01-10T20:28:41.407Z,97613.14
2018-01-10T20:31:09.178Z,97606.74
2018-01-10T20:33:36.751Z,97612.36
2018-01-10T20:36:04.335Z,97606.31
2018-01-10T20:38:31.906Z,97616.08
2018-01-10T20:40:59.446Z,97621.56
2018-01-10T20:43:27.130Z,97626.89
2018-01-10T20:45:54.741Z,97622.20
2018-01-10T20:48:22.307Z,97629.70
2018-01-10T20:50:49.831Z,97630.49
2018-01-10T20:53:17.368Z,97631.24
2018-01-10T20:55:44.902Z,97635.67
2018-01-10T20:58:12.447Z,97629.20
2018-01-10T21:00:39.990Z,97630.55
2018-01-10T21:03:07.564Z,97629.19
2018-01-10T21:05:35.120Z,97634.83
2018-01-10T21:08:02.687Z,97642.30
2018-01-10T21:10:30.225Z,97633.09
2018-01-10T21:12:57.762Z,97642.42
2018-01-10T21:15:25.282Z,97637.22
2018-01-10T21:17:52.817Z,97639.63
2018-01-10T21:20:20.380Z,97647.09
2018-01-10T21:22:47.933Z,97641.09
2018-01-10T21:25:15.537Z,97642.93
2018-01-10T21:27:43.100Z,97644.14
2018-01-10T21:30:10.679Z,97641.65
2018-01-10T21:32:38.221Z,97640.02
2018-01-10T21:35:05.880Z,97636.75
2018-01-10T21:37:33.413Z,97645.30
2018-01-10T21:40:00.951Z,97643.93
2018-01-10T21:42:28.485Z,97644.63
2018-01-10T21:44:56.053Z,97641.50
2018-01-10T21:47:23.608Z,97643.73
2018-01-10T21:49:52.089Z,97649.19
2018-01-10T21:52:19.636Z,97650.55
2018-01-10T21:54:47.311Z,97646.66
2018-01-10T21:57:14.835Z,97650.39
2018-01-10T21:59:42.370Z,97644.66
2018-01-10T22:02:09.916Z,97643.32
2018-01-10T22:04:37.435Z,97646.83
2018-01-10T22:07:05.075Z,97645.72
2018-01-10T22:09:32.741Z,97653.56
2018-01-10T22:12:00.266Z,97653.65
2018-01-10T22:14:27.957Z,97651.83
2018-01-10T22:16:55.487Z,97642.46
2018-01-10T22:19:23.125Z,97640.02
2018-01-10T22:21:50.693Z,97643.23
2018-01-10T22:24:18.220Z,97638.28
2018-01-10T22:26:45.752Z,97633.59
2018-01-10T22:29:13.257Z,97633.02
2018-01-10T22:31:41.179Z,97636.72
2018-01-10T22:34:08.746Z,97639.72
2018-01-10T22:36:36.296Z,97630.31
2018-01-10T22:39:03.836Z,97633.81
2018-01-10T22:41:31.415Z,97636.41
2018-01-10T22:43:58.936Z,97637.45
2018-01-10T22:46:26.473Z,97641.71
2018-01-10T22:48:53.987Z,97640.09
2018-01-10T22:51:21.528Z,97640.58
2018-01-10T22:53:49.081Z,97641.28
2018-01-10T22:56:16.637Z,97635.78
2018-01-10T22:58:44.205Z,97640.63
2018-01-10T23:01:11.797Z,97644.83
2018-01-10T23:03:39.332Z,97648.23
2018-01-10T23:06:06.870Z,97649.73
2018-01-10T23:08:34.371Z,97644.35
2018-01-10T23:11:01.973Z,97643.36
2018-01-10T23:13:29.481Z,97646.05
2018-01-10T23:15:56.980Z,97648.61
2018-01-10T23:18:24.516Z,97657.14
2018-01-10T23:20:52.016Z,97658.69
2018-01-10T23:23:19.555Z,97655.52
2018-01-10T23:25:47.102Z,97662.78
2018-01-10T23:28:14.665Z,97656.39
2018-01-10T23:30:42.191Z,97652.59
2018-01-10T23:33:09.714Z,97648.48
2018-01-10T23:35:37.225Z,97652.19
2018-01-10T23:38:04.735Z,97648.48
2018-01-10T23:40:32.250Z,97651.27
2018-01-10T23:42:59.753Z,97642.38
2018-01-10T23:45:27.260Z,97648.59
2018-01-10T23:47:54.766Z,97647.70
2018-01-10T23:50:22.311Z,97637.59
2018-01-10T23:52:49.919Z,97637.31
2018-01-10T23:55:17.445Z,97643.73
2018-01-10T23:57:44.961Z,97635.42
